Old Hickory, Tennessee
Current Conditions -  °F | °C
As of 7:53 AM on Thursday 23 Oct 2014 (Local Time) from KBNA Reporting Station
Light Fog Light Fog  
Wind Chill: 45°   Ceiling: Unl
Heat Index: 45°   Visibility: 10mi
Dew Point: 41°   Wind: 0mph
Humidity: 86%   Direction: NA
Pressure: 30.23"   Gusts: NA
Location:  36.26°N, 86.65°W
Report Text: KBNA 231253Z 00000KT 10SM BCFG FEW200 07/05 A3023 RMK AO2 SLP237 BCFG E T00720050
Loading
Personal Weather Stations






























Interactive Weather Map
Tropical Storm Tracking
New forecast layout! Learn more

10-Day Weather Forecast

Advertisements
Track Severe Weather on mobile